Time;durP1;ratioP1;P1;durP2;ratioP2;P2;SDS_P1;SDS_P2;PMS_P1;PMS_P2;Temp;Humidity;BMP_temperature;BMP_pressure;BME280_temperature;BME280_humidity;BME280_pressure;Samples;Min_cycle;Max_cycle;Signal;HPM_P1;HPM_P2
2021/05/22 00:01:39;;;;;;;4.23;3.07;;;;;;;;;;5033376;28;20455;-58
2021/05/22 00:04:06;;;;;;;6.23;3.20;;;;;;;;;;5033335;28;20072;-59
2021/05/22 00:06:33;;;;;;;4.83;3.10;;;;;;;;;;5033805;28;20088;-59
2021/05/22 00:09:00;;;;;;;4.77;2.90;;;;;;;;;;5033369;28;20091;-58
2021/05/22 00:11:27;;;;;;;5.07;2.97;;;;;;;;;;5033222;28;20040;-58
2021/05/22 00:13:53;;;;;;;6.03;3.00;;;;;;;;;;5033254;28;20036;-58
2021/05/22 00:16:20;;;;;;;7.40;2.70;;;;;;;;;;5033199;28;20022;-59
2021/05/22 00:18:47;;;;;;;3.93;2.77;;;;;;;;;;5033627;28;20056;-60
2021/05/22 00:21:14;;;;;;;5.93;3.00;;;;;;;;;;5033174;28;20028;-58
2021/05/22 00:23:41;;;;;;;3.30;2.30;;;;;;;;;;5032989;28;20069;-60
2021/05/22 00:26:07;;;;;;;4.47;2.70;;;;;;;;;;5052936;28;20032;-58
2021/05/22 00:28:34;;;;;;;5.97;3.00;;;;;;;;;;5053120;28;20074;-58
2021/05/22 00:31:01;;;;;;;7.57;2.30;;;;;;;;;;5052954;28;20021;-60
2021/05/22 00:33:28;;;;;;;4.20;2.77;;;;;;;;;;5052550;28;20079;-59
2021/05/22 00:35:55;;;;;;;3.47;2.33;;;;;;;;;;5053012;28;20025;-60
2021/05/22 00:38:22;;;;;;;3.47;2.30;;;;;;;;;;5052879;28;20021;-59
2021/05/22 00:40:49;;;;;;;3.27;2.40;;;;;;;;;;5052840;28;20029;-59
2021/05/22 00:43:16;;;;;;;3.93;2.33;;;;;;;;;;5052692;28;20037;-60
2021/05/22 00:45:44;;;;;;;5.30;2.47;;;;;;;;;;5052622;28;20021;-59
2021/05/22 00:48:11;;;;;;;6.93;2.40;;;;;;;;;;5052750;28;20478;-59
2021/05/22 00:50:38;;;;;;;5.03;2.30;;;;;;;;;;5052634;28;20029;-59
2021/05/22 00:53:06;;;;;;;4.83;2.30;;;;;;;;;;5052628;28;20103;-59
2021/05/22 00:55:55;;;;;;;3.87;2.60;;;;;;;;;;5044546;28;20077;-59
2021/05/22 00:58:21;;;;;;;3.50;2.27;;;;;;;;;;5032819;28;20041;-58
2021/05/22 01:00:49;;;;;;;6.57;2.63;;;;;;;;;;5032754;28;20029;-59
2021/05/22 01:03:21;;;;;;;7.83;2.60;;;;;;;;;;5032628;28;20391;-59
2021/05/22 01:05:48;;;;;;;4.10;2.20;;;;;;;;;;5032793;28;20476;-59
2021/05/22 01:08:19;;;;;;;3.77;2.07;;;;;;;;;;5032624;28;20026;-59
2021/05/22 01:10:48;;;;;;;3.10;1.90;;;;;;;;;;5032484;28;20484;-58
2021/05/22 01:13:17;;;;;;;8.63;2.47;;;;;;;;;;5032523;28;20474;-57
2021/05/22 01:15:45;;;;;;;8.30;2.87;;;;;;;;;;5032910;28;20025;-58
2021/05/22 01:18:13;;;;;;;3.90;2.63;;;;;;;;;;5032533;28;20025;-58
2021/05/22 01:20:39;;;;;;;6.30;3.27;;;;;;;;;;5032566;28;20030;-57
2021/05/22 01:23:25;;;;;;;4.87;3.30;;;;;;;;;;5032463;28;20033;-58
2021/05/22 01:25:52;;;;;;;4.17;2.90;;;;;;;;;;5031367;28;20061;-58
2021/05/22 01:28:19;;;;;;;5.00;2.93;;;;;;;;;;5032454;28;20029;-58
2021/05/22 01:30:47;;;;;;;5.10;2.80;;;;;;;;;;5032301;28;20484;-58
2021/05/22 01:33:14;;;;;;;3.93;2.67;;;;;;;;;;5032476;28;20030;-56
2021/05/22 01:35:42;;;;;;;5.10;2.80;;;;;;;;;;5032403;28;20468;-58
2021/05/22 01:38:08;;;;;;;4.73;2.80;;;;;;;;;;5014726;28;20041;-57
2021/05/22 01:40:36;;;;;;;6.23;2.87;;;;;;;;;;5032176;28;20036;-57
2021/05/22 01:43:03;;;;;;;5.17;3.00;;;;;;;;;;5032273;28;20029;-58
2021/05/22 01:45:32;;;;;;;5.27;2.93;;;;;;;;;;5032926;28;20021;-57
2021/05/22 01:48:00;;;;;;;5.43;2.67;;;;;;;;;;5036000;28;20045;-57
2021/05/22 01:50:28;;;;;;;4.90;3.27;;;;;;;;;;5035884;28;20469;-58
2021/05/22 01:52:55;;;;;;;5.07;3.13;;;;;;;;;;5036268;28;20033;-58
2021/05/22 01:55:23;;;;;;;6.40;3.53;;;;;;;;;;5037060;28;20037;-58
2021/05/22 01:57:50;;;;;;;5.63;2.70;;;;;;;;;;5055989;28;20024;-58
2021/05/22 02:00:17;;;;;;;6.57;3.30;;;;;;;;;;5055810;28;20025;-58
2021/05/22 02:02:48;;;;;;;8.00;3.77;;;;;;;;;;5055593;28;20056;-58
2021/05/22 02:05:17;;;;;;;5.93;3.43;;;;;;;;;;5055543;28;20036;-58
2021/05/22 02:07:45;;;;;;;15.30;4.67;;;;;;;;;;5055532;28;20053;-58
2021/05/22 02:10:12;;;;;;;7.93;4.70;;;;;;;;;;5055469;28;20060;-57
2021/05/22 02:12:39;;;;;;;6.87;3.73;;;;;;;;;;5055319;28;20024;-57
2021/05/22 02:15:09;;;;;;;4.90;3.30;;;;;;;;;;5055471;28;20403;-58
2021/05/22 02:17:37;;;;;;;6.63;3.30;;;;;;;;;;5055307;28;20092;-58
2021/05/22 02:20:04;;;;;;;6.77;4.30;;;;;;;;;;5037783;28;20017;-58
2021/05/22 02:22:32;;;;;;;6.30;4.30;;;;;;;;;;5055330;28;20055;-59
2021/05/22 02:24:59;;;;;;;7.50;4.77;;;;;;;;;;5055145;28;20395;-58
2021/05/22 02:27:26;;;;;;;9.03;4.27;;;;;;;;;;5055126;28;20033;-57
2021/05/22 02:29:53;;;;;;;6.60;4.30;;;;;;;;;;5055230;28;20407;-58
2021/05/22 02:32:23;;;;;;;7.23;4.30;;;;;;;;;;5055088;28;20028;-58
2021/05/22 02:34:53;;;;;;;5.70;3.87;;;;;;;;;;5054925;28;20029;-58
2021/05/22 02:37:22;;;;;;;14.57;4.80;;;;;;;;;;5054864;28;20372;-58
2021/05/22 02:39:53;;;;;;;5.60;3.77;;;;;;;;;;5055091;28;20043;-58
2021/05/22 02:42:20;;;;;;;4.70;3.57;;;;;;;;;;5054796;28;20056;-58
2021/05/22 02:44:48;;;;;;;8.23;3.70;;;;;;;;;;5054846;28;20056;-58
2021/05/22 02:47:16;;;;;;;7.23;3.97;;;;;;;;;;5054895;28;20028;-58
2021/05/22 02:49:43;;;;;;;6.37;4.10;;;;;;;;;;5054813;28;20032;-58
2021/05/22 02:52:15;;;;;;;9.23;4.10;;;;;;;;;;5054664;28;20035;-58
2021/05/22 02:54:42;;;;;;;8.07;3.90;;;;;;;;;;5054638;28;20115;-58
2021/05/22 02:57:10;;;;;;;6.40;4.00;;;;;;;;;;5036543;28;20079;-58
2021/05/22 02:59:38;;;;;;;7.47;3.70;;;;;;;;;;5034783;28;20109;-58
2021/05/22 03:02:05;;;;;;;7.30;3.50;;;;;;;;;;5034541;28;20080;-58
2021/05/22 03:04:33;;;;;;;7.23;3.93;;;;;;;;;;5034548;28;20435;-57
2021/05/22 03:07:00;;;;;;;6.23;3.00;;;;;;;;;;5034438;28;20025;-58
2021/05/22 03:09:27;;;;;;;8.63;3.10;;;;;;;;;;5034311;28;20050;-58
2021/05/22 03:11:54;;;;;;;5.77;3.60;;;;;;;;;;5034342;28;20037;-58
2021/05/22 03:14:21;;;;;;;7.23;3.70;;;;;;;;;;5034247;28;20060;-58
2021/05/22 03:16:47;;;;;;;6.27;3.90;;;;;;;;;;5034147;28;20060;-58
2021/05/22 03:19:14;;;;;;;5.83;3.53;;;;;;;;;;5034255;28;20088;-58
2021/05/22 03:21:41;;;;;;;5.40;3.20;;;;;;;;;;5034132;28;20032;-58
2021/05/22 03:24:08;;;;;;;8.20;3.67;;;;;;;;;;5036177;28;20048;-58
2021/05/22 03:26:35;;;;;;;4.37;2.90;;;;;;;;;;5054172;28;20024;-58
2021/05/22 03:29:01;;;;;;;12.03;4.37;;;;;;;;;;5053898;28;20028;-58
2021/05/22 03:31:28;;;;;;;5.67;3.70;;;;;;;;;;5053966;28;20025;-58
2021/05/22 03:33:55;;;;;;;8.53;3.70;;;;;;;;;;5053955;28;20104;-58
2021/05/22 03:36:22;;;;;;;5.90;3.50;;;;;;;;;;5053761;28;20380;-58
2021/05/22 03:38:49;;;;;;;8.33;4.13;;;;;;;;;;5053971;28;20040;-58
2021/05/22 03:41:16;;;;;;;9.57;4.63;;;;;;;;;;5053670;28;20086;-58
2021/05/22 03:43:42;;;;;;;6.07;3.80;;;;;;;;;;5053596;28;20506;-58
2021/05/22 03:46:09;;;;;;;5.63;3.90;;;;;;;;;;5053721;28;20025;-58
2021/05/22 03:48:36;;;;;;;7.67;3.73;;;;;;;;;;5053526;28;20025;-58
2021/05/22 03:51:03;;;;;;;7.23;3.90;;;;;;;;;;5053574;28;20109;-58
2021/05/22 03:53:30;;;;;;;8.37;3.63;;;;;;;;;;5053480;28;20032;-58
2021/05/22 03:55:57;;;;;;;5.83;3.33;;;;;;;;;;5046566;28;20499;-58
2021/05/22 03:58:24;;;;;;;8.67;3.30;;;;;;;;;;5033774;28;20025;-57
2021/05/22 04:00:51;;;;;;;8.77;3.60;;;;;;;;;;5033450;28;20036;-57
2021/05/22 04:03:18;;;;;;;5.13;3.47;;;;;;;;;;5053294;28;20082;-57
2021/05/22 04:05:45;;;;;;;5.80;3.60;;;;;;;;;;5053307;28;20032;-58
2021/05/22 04:08:11;;;;;;;6.70;4.37;;;;;;;;;;5052736;28;20082;-58
2021/05/22 04:10:38;;;;;;;9.53;3.97;;;;;;;;;;5053189;28;20028;-58
2021/05/22 04:13:05;;;;;;;6.17;3.90;;;;;;;;;;5053182;28;20040;-58
2021/05/22 04:15:32;;;;;;;6.33;4.50;;;;;;;;;;5053081;28;20070;-58
2021/05/22 04:17:59;;;;;;;10.60;5.20;;;;;;;;;;5053251;28;20040;-58
2021/05/22 04:20:25;;;;;;;7.53;5.13;;;;;;;;;;5053106;28;20066;-58
2021/05/22 04:22:52;;;;;;;6.33;4.23;;;;;;;;;;5053093;28;20029;-58
2021/05/22 04:25:19;;;;;;;10.63;4.40;;;;;;;;;;5052880;28;20037;-57
2021/05/22 04:27:46;;;;;;;7.73;3.97;;;;;;;;;;5052884;28;20096;-58
2021/05/22 04:30:13;;;;;;;5.20;3.23;;;;;;;;;;5052829;28;20025;-58
2021/05/22 04:32:40;;;;;;;9.00;3.70;;;;;;;;;;5052870;28;20188;-58
2021/05/22 04:35:07;;;;;;;6.03;3.60;;;;;;;;;;5052812;28;20024;-58
2021/05/22 04:37:34;;;;;;;7.50;3.27;;;;;;;;;;5052900;28;20112;-58
2021/05/22 04:40:01;;;;;;;6.23;3.73;;;;;;;;;;5052768;28;20079;-57
2021/05/22 04:42:28;;;;;;;5.77;4.00;;;;;;;;;;5052732;28;20060;-58
2021/05/22 04:44:54;;;;;;;7.00;3.40;;;;;;;;;;5052705;28;20029;-58
2021/05/22 04:47:21;;;;;;;4.83;3.20;;;;;;;;;;5052773;28;20475;-58
2021/05/22 04:49:48;;;;;;;6.37;4.13;;;;;;;;;;5052653;28;20479;-57
2021/05/22 04:52:15;;;;;;;5.43;4.13;;;;;;;;;;5053101;28;20029;-58
2021/05/22 04:54:42;;;;;;;8.93;4.60;;;;;;;;;;5052674;28;20096;-57
2021/05/22 04:57:08;;;;;;;6.00;4.57;;;;;;;;;;5036702;28;20135;-58
2021/05/22 04:59:35;;;;;;;16.23;5.40;;;;;;;;;;5032763;28;20022;-58
2021/05/22 05:02:02;;;;;;;5.60;3.97;;;;;;;;;;5032581;28;20091;-58
2021/05/22 05:04:29;;;;;;;7.87;4.33;;;;;;;;;;5032658;28;20041;-58
2021/05/22 05:06:55;;;;;;;6.77;4.40;;;;;;;;;;5032685;28;20021;-58
2021/05/22 05:09:22;;;;;;;7.67;4.57;;;;;;;;;;5032749;28;20216;-58
2021/05/22 05:11:49;;;;;;;7.57;4.73;;;;;;;;;;5032618;28;20424;-58
2021/05/22 05:14:16;;;;;;;7.43;3.93;;;;;;;;;;5032670;28;20032;-58
2021/05/22 05:16:43;;;;;;;6.63;4.53;;;;;;;;;;5032675;28;20026;-58
2021/05/22 05:19:10;;;;;;;8.43;4.30;;;;;;;;;;5052443;28;20414;-58
2021/05/22 05:21:37;;;;;;;7.77;4.87;;;;;;;;;;5056344;28;20035;-58
2021/05/22 05:24:04;;;;;;;7.13;4.77;;;;;;;;;;5056456;28;20113;-58
2021/05/22 05:26:30;;;;;;;8.50;4.83;;;;;;;;;;5056407;28;20025;-58
2021/05/22 05:28:57;;;;;;;8.57;3.87;;;;;;;;;;5056427;28;20017;-58
2021/05/22 05:31:24;;;;;;;9.37;4.40;;;;;;;;;;5056319;28;20025;-58
2021/05/22 05:33:51;;;;;;;8.00;4.30;;;;;;;;;;5056351;28;20086;-58
2021/05/22 05:36:17;;;;;;;7.10;4.90;;;;;;;;;;5056218;28;20036;-58
2021/05/22 05:38:44;;;;;;;9.53;4.70;;;;;;;;;;5056174;28;20036;-58
2021/05/22 05:41:11;;;;;;;5.50;3.90;;;;;;;;;;5056083;28;20047;-58
2021/05/22 05:43:38;;;;;;;6.13;3.87;;;;;;;;;;5055889;28;20387;-58
2021/05/22 05:46:04;;;;;;;6.10;4.13;;;;;;;;;;5056069;28;20045;-58
2021/05/22 05:48:31;;;;;;;6.37;3.83;;;;;;;;;;5055835;28;20044;-58
2021/05/22 05:50:58;;;;;;;6.23;4.10;;;;;;;;;;5055980;28;20103;-58
2021/05/22 05:53:25;;;;;;;8.53;4.80;;;;;;;;;;5055727;28;20029;-58
2021/05/22 05:55:51;;;;;;;8.87;4.87;;;;;;;;;;5051392;28;20068;-58
2021/05/22 05:58:18;;;;;;;7.37;4.33;;;;;;;;;;5035903;28;20092;-58
2021/05/22 06:00:45;;;;;;;6.43;4.13;;;;;;;;;;5018331;28;20051;-58
2021/05/22 06:03:12;;;;;;;7.07;4.07;;;;;;;;;;5055504;28;20033;-58
2021/05/22 06:05:39;;;;;;;6.73;3.40;;;;;;;;;;5055694;28;20079;-58
2021/05/22 06:08:07;;;;;;;6.97;4.17;;;;;;;;;;5055479;28;20523;-58
2021/05/22 06:10:33;;;;;;;5.47;3.80;;;;;;;;;;5055311;28;20398;-58
2021/05/22 06:13:00;;;;;;;16.50;4.90;;;;;;;;;;5055417;28;20488;-58
2021/05/22 06:15:34;;;;;;;6.27;4.67;;;;;;;;;;5055522;28;20063;-58
2021/05/22 06:18:01;;;;;;;4.97;3.67;;;;;;;;;;5055284;28;20364;-58
2021/05/22 06:20:28;;;;;;;7.50;3.53;;;;;;;;;;5055250;28;20365;-58
2021/05/22 06:22:55;;;;;;;5.97;3.90;;;;;;;;;;5055178;28;20111;-58
2021/05/22 06:25:21;;;;;;;5.23;3.83;;;;;;;;;;5055211;28;20376;-58
2021/05/22 06:27:48;;;;;;;10.27;4.47;;;;;;;;;;5055111;28;20025;-58
2021/05/22 06:30:15;;;;;;;5.73;4.10;;;;;;;;;;5054999;28;20035;-58
2021/05/22 06:32:42;;;;;;;8.40;4.03;;;;;;;;;;5054530;28;20036;-58
2021/05/22 06:35:09;;;;;;;6.33;3.93;;;;;;;;;;5055008;28;20031;-58
2021/05/22 06:37:36;;;;;;;5.30;4.13;;;;;;;;;;5055009;28;20040;-58
2021/05/22 06:40:03;;;;;;;5.93;3.83;;;;;;;;;;5054909;28;20105;-58
2021/05/22 06:42:32;;;;;;;5.73;3.77;;;;;;;;;;5054756;28;20067;-58
2021/05/22 06:45:04;;;;;;;7.70;4.23;;;;;;;;;;5054939;28;20388;-58
2021/05/22 06:47:31;;;;;;;5.73;3.60;;;;;;;;;;5054738;28;20021;-58
2021/05/22 06:49:57;;;;;;;6.70;4.20;;;;;;;;;;5054701;28;20379;-58
2021/05/22 06:52:24;;;;;;;5.83;3.80;;;;;;;;;;5054654;28;20028;-58
2021/05/22 06:54:51;;;;;;;6.30;3.50;;;;;;;;;;5054685;28;20025;-58
2021/05/22 06:57:18;;;;;;;5.13;3.57;;;;;;;;;;5039481;28;20051;-58
2021/05/22 06:59:46;;;;;;;7.17;4.10;;;;;;;;;;5034699;28;20029;-58
2021/05/22 07:02:13;;;;;;;10.10;4.07;;;;;;;;;;5034595;28;20095;-58
2021/05/22 07:04:40;;;;;;;5.90;3.70;;;;;;;;;;5054469;28;20274;-58
2021/05/22 07:07:07;;;;;;;5.77;3.47;;;;;;;;;;5054477;28;20021;-58
2021/05/22 07:09:33;;;;;;;10.67;3.40;;;;;;;;;;5054400;28;20017;-58
2021/05/22 07:12:00;;;;;;;5.80;3.40;;;;;;;;;;5054309;28;20032;-58
2021/05/22 07:14:28;;;;;;;5.00;3.53;;;;;;;;;;5054466;28;20025;-58
2021/05/22 07:16:57;;;;;;;7.00;3.67;;;;;;;;;;5054240;28;20476;-58
2021/05/22 07:19:26;;;;;;;7.30;4.77;;;;;;;;;;5054287;28;20188;-58
2021/05/22 07:21:53;;;;;;;11.73;6.00;;;;;;;;;;5054285;28;20021;-58
2021/05/22 07:24:23;;;;;;;6.37;4.90;;;;;;;;;;5054033;28;20036;-58
2021/05/22 07:26:50;;;;;;;6.10;4.20;;;;;;;;;;5054236;28;20549;-58
2021/05/22 07:29:17;;;;;;;7.53;5.10;;;;;;;;;;5054039;28;20511;-58
2021/05/22 07:31:44;;;;;;;9.43;4.80;;;;;;;;;;5036178;28;20112;-58
2021/05/22 07:34:12;;;;;;;6.83;4.93;;;;;;;;;;5054144;28;20029;-58
2021/05/22 07:36:39;;;;;;;7.10;4.70;;;;;;;;;;5053940;28;20426;-58
2021/05/22 07:39:06;;;;;;;6.40;4.63;;;;;;;;;;5053813;28;20028;-58
2021/05/22 07:41:33;;;;;;;4.67;3.00;;;;;;;;;;5053710;28;20025;-58
2021/05/22 07:44:00;;;;;;;6.80;3.40;;;;;;;;;;5052682;28;20043;-58
2021/05/22 07:46:27;;;;;;;5.40;3.93;;;;;;;;;;5053894;28;20021;-58
2021/05/22 07:48:54;;;;;;;5.77;3.30;;;;;;;;;;5053953;28;20060;-58
2021/05/22 07:51:20;;;;;;;7.57;3.73;;;;;;;;;;5053499;28;20429;-58
2021/05/22 07:53:47;;;;;;;7.77;4.60;;;;;;;;;;5053645;28;20074;-58
2021/05/22 07:56:14;;;;;;;6.10;3.70;;;;;;;;;;5047995;28;20057;-58
2021/05/22 07:58:41;;;;;;;5.47;3.77;;;;;;;;;;5033717;28;20027;-58
2021/05/22 08:01:08;;;;;;;5.70;4.20;;;;;;;;;;5033539;28;20029;-58
2021/05/22 08:03:35;;;;;;;9.70;3.73;;;;;;;;;;5033473;28;20057;-58
2021/05/22 08:06:02;;;;;;;5.77;3.80;;;;;;;;;;5033446;28;20380;-58
2021/05/22 08:08:29;;;;;;;5.97;3.93;;;;;;;;;;5033437;28;20492;-58
2021/05/22 08:10:56;;;;;;;8.70;4.60;;;;;;;;;;5033363;28;20067;-58
2021/05/22 08:13:27;;;;;;;8.80;3.87;;;;;;;;;;5033321;28;20029;-58
2021/05/22 08:15:54;;;;;;;5.07;3.33;;;;;;;;;;5033432;28;20053;-57
2021/05/22 08:18:21;;;;;;;4.73;3.17;;;;;;;;;;5033309;28;20116;-58
2021/05/22 08:20:48;;;;;;;6.00;4.30;;;;;;;;;;5033291;28;20105;-58
2021/05/22 08:23:14;;;;;;;5.73;4.00;;;;;;;;;;5033022;28;20029;-58
2021/05/22 08:25:41;;;;;;;5.67;3.30;;;;;;;;;;5033077;28;20424;-58
2021/05/22 08:28:08;;;;;;;7.20;4.07;;;;;;;;;;5033047;28;20466;-58
2021/05/22 08:30:35;;;;;;;5.57;3.83;;;;;;;;;;5033147;28;20377;-58
2021/05/22 08:33:03;;;;;;;6.87;4.33;;;;;;;;;;5033032;28;20033;-58
2021/05/22 08:35:33;;;;;;;8.17;4.87;;;;;;;;;;5032923;28;20121;-58
2021/05/22 08:37:59;;;;;;;5.30;3.77;;;;;;;;;;5033080;28;20036;-58
2021/05/22 08:40:28;;;;;;;6.20;3.63;;;;;;;;;;5032901;28;20075;-58
2021/05/22 08:42:54;;;;;;;6.03;3.53;;;;;;;;;;5032871;28;20045;-58
2021/05/22 08:45:23;;;;;;;7.73;3.77;;;;;;;;;;5032969;28;20029;-58
2021/05/22 08:47:53;;;;;;;7.77;3.23;;;;;;;;;;5032792;28;20034;-58
2021/05/22 08:50:21;;;;;;;5.30;3.13;;;;;;;;;;5032773;28;20029;-58
2021/05/22 08:52:49;;;;;;;7.60;4.43;;;;;;;;;;5032784;28;20037;-58
2021/05/22 08:55:16;;;;;;;4.83;3.53;;;;;;;;;;5032513;28;20030;-58
2021/05/22 08:57:58;;;;;;;5.63;3.60;;;;;;;;;;5033832;28;20057;-58
2021/05/22 09:00:27;;;;;;;7.57;3.40;;;;;;;;;;5052212;28;20108;-58
2021/05/22 09:02:54;;;;;;;5.30;3.10;;;;;;;;;;5052409;28;20293;-58
2021/05/22 09:05:22;;;;;;;4.73;3.23;;;;;;;;;;5052536;28;20029;-58
2021/05/22 09:07:49;;;;;;;5.17;3.43;;;;;;;;;;5052515;28;20036;-58
2021/05/22 09:10:18;;;;;;;5.73;3.77;;;;;;;;;;5052574;28;20029;-58
2021/05/22 09:12:45;;;;;;;6.67;3.73;;;;;;;;;;5052653;28;20262;-58
2021/05/22 09:15:14;;;;;;;5.47;3.77;;;;;;;;;;5052587;28;20383;-58
2021/05/22 09:18:01;;;;;;;11.40;4.60;;;;;;;;;;5052475;28;20483;-58
2021/05/22 09:20:32;;;;;;;7.50;4.10;;;;;;;;;;5052249;28;20075;-58
2021/05/22 09:23:15;;;;;;;7.80;4.20;;;;;;;;;;5052338;28;20120;-58
2021/05/22 09:25:49;;;;;;;6.43;4.37;;;;;;;;;;5052350;28;20268;-58
2021/05/22 09:28:18;;;;;;;6.07;4.30;;;;;;;;;;5052328;28;20036;-58
2021/05/22 09:30:48;;;;;;;4.97;3.60;;;;;;;;;;5052386;28;20341;-58
2021/05/22 09:33:16;;;;;;;6.10;4.07;;;;;;;;;;5052517;28;20246;-58
2021/05/22 09:35:50;;;;;;;6.30;3.07;;;;;;;;;;5052186;28;20258;-58
2021/05/22 09:38:17;;;;;;;4.85;3.35;;;;;;;;;;5052569;28;20446;-57
2021/05/22 09:40:44;;;;;;;6.30;3.77;;;;;;;;;;5052329;28;20029;-58
2021/05/22 09:43:11;;;;;;;7.87;3.60;;;;;;;;;;5052108;28;20369;-58
2021/05/22 09:45:40;;;;;;;4.53;3.27;;;;;;;;;;5052154;28;20079;-58
2021/05/22 09:48:23;;;;;;;5.30;3.80;;;;;;;;;;5052166;28;20684;-58
2021/05/22 09:50:50;;;;;;;6.43;3.27;;;;;;;;;;5052177;28;20269;-58
2021/05/22 09:53:31;;;;;;;3.87;2.83;;;;;;;;;;5052095;28;20586;-58
2021/05/22 09:56:10;;;;;;;6.03;3.10;;;;;;;;;;5050806;28;20318;-59
2021/05/22 09:58:37;;;;;;;5.97;3.27;;;;;;;;;;5032308;28;20689;-58
2021/05/22 10:01:05;;;;;;;6.03;3.00;;;;;;;;;;5032204;28;20270;-58
2021/05/22 10:03:31;;;;;;;7.10;3.00;;;;;;;;;;5032046;28;20295;-57
2021/05/22 10:05:58;;;;;;;7.53;3.43;;;;;;;;;;5032132;28;20267;-58
2021/05/22 10:08:25;;;;;;;5.80;2.90;;;;;;;;;;5035401;28;20259;-58
2021/05/22 10:10:56;;;;;;;6.83;3.03;;;;;;;;;;5035560;28;20388;-57
2021/05/22 10:13:23;;;;;;;5.40;2.60;;;;;;;;;;5055338;28;20737;-57
2021/05/22 10:15:51;;;;;;;5.50;3.13;;;;;;;;;;5055767;28;20639;-58
2021/05/22 10:18:18;;;;;;;5.47;2.63;;;;;;;;;;5055532;28;20254;-58
2021/05/22 10:20:45;;;;;;;4.33;2.67;;;;;;;;;;5055416;28;20266;-57
2021/05/22 10:23:12;;;;;;;4.63;2.67;;;;;;;;;;5055322;28;20286;-58
2021/05/22 10:25:39;;;;;;;4.00;2.67;;;;;;;;;;5055238;28;20265;-58
2021/05/22 10:28:08;;;;;;;5.13;2.53;;;;;;;;;;5055291;28;20246;-57
2021/05/22 10:30:35;;;;;;;5.77;2.93;;;;;;;;;;5055063;28;20266;-58
2021/05/22 10:33:08;;;;;;;4.23;2.50;;;;;;;;;;5055187;28;20301;-58
2021/05/22 10:35:58;;;;;;;8.13;3.30;;;;;;;;;;5055129;28;20262;-58
2021/05/22 10:38:34;;;;;;;5.17;2.47;;;;;;;;;;5055207;28;20348;-57
2021/05/22 10:41:02;;;;;;;6.13;2.53;;;;;;;;;;5054862;28;20262;-57
2021/05/22 10:43:54;;;;;;;5.70;2.80;;;;;;;;;;5054991;28;20281;-58
2021/05/22 10:46:22;;;;;;;6.33;2.77;;;;;;;;;;5054890;28;20270;-58
2021/05/22 10:48:51;;;;;;;4.03;2.47;;;;;;;;;;5054822;28;20247;-58
2021/05/22 10:51:24;;;;;;;3.80;2.37;;;;;;;;;;5054814;28;20296;-58
2021/05/22 10:53:54;;;;;;;3.83;2.87;;;;;;;;;;5054794;28;20284;-58
2021/05/22 10:56:21;;;;;;;9.47;3.50;;;;;;;;;;5051205;28;20290;-58
2021/05/22 10:59:00;;;;;;;4.23;2.60;;;;;;;;;;5054670;28;20613;-58
2021/05/22 11:01:31;;;;;;;4.63;2.37;;;;;;;;;;5054629;28;20272;-58
2021/05/22 11:04:07;;;;;;;6.67;2.70;;;;;;;;;;5054637;28;20444;-58
2021/05/22 11:06:49;;;;;;;7.03;3.20;;;;;;;;;;5054597;28;20660;-58
2021/05/22 11:09:31;;;;;;;4.90;3.10;;;;;;;;;;5054684;28;20261;-58
2021/05/22 11:11:59;;;;;;;4.37;2.50;;;;;;;;;;5054566;28;20250;-58
2021/05/22 11:14:35;;;;;;;4.50;2.20;;;;;;;;;;5054508;28;20254;-58
2021/05/22 11:17:22;;;;;;;2.87;1.77;;;;;;;;;;5054302;28;20289;-58
2021/05/22 11:19:59;;;;;;;8.73;2.33;;;;;;;;;;5004278;28;20875;-58
2021/05/22 11:22:29;;;;;;;4.83;2.40;;;;;;;;;;5054174;28;20258;-58
2021/05/22 11:25:03;;;;;;;5.90;2.47;;;;;;;;;;5054139;28;20290;-58
2021/05/22 11:27:51;;;;;;;5.07;2.33;;;;;;;;;;5054237;28;20257;-58
2021/05/22 11:30:19;;;;;;;3.70;2.07;;;;;;;;;;5054118;28;20634;-58
2021/05/22 11:32:53;;;;;;;4.30;2.23;;;;;;;;;;5054036;28;20254;-57
2021/05/22 11:35:25;;;;;;;5.77;2.30;;;;;;;;;;5053977;28;20400;-57
2021/05/22 11:37:52;;;;;;;3.87;2.30;;;;;;;;;;5053890;28;20273;-57
2021/05/22 11:40:39;;;;;;;7.17;2.27;;;;;;;;;;5053744;28;20262;-57
2021/05/22 11:43:16;;;;;;;5.07;2.13;;;;;;;;;;5037297;28;20290;-58
2021/05/22 11:45:43;;;;;;;3.90;2.23;;;;;;;;;;5035850;28;20273;-58
2021/05/22 11:48:22;;;;;;;8.50;2.50;;;;;;;;;;5053838;28;20264;-58
2021/05/22 11:50:49;;;;;;;4.00;2.70;;;;;;;;;;5053485;28;20590;-58
2021/05/22 11:53:17;;;;;;;6.47;2.60;;;;;;;;;;5053633;28;20250;-57
2021/05/22 11:55:45;;;;;;;5.33;2.37;;;;;;;;;;5053481;28;20600;-58
2021/05/22 11:58:12;;;;;;;4.97;2.30;;;;;;;;;;5035723;28;20618;-57
2021/05/22 12:00:39;;;;;;;5.77;2.63;;;;;;;;;;5033624;28;20726;-57
2021/05/22 12:03:08;;;;;;;5.97;2.50;;;;;;;;;;5033454;28;20282;-58
2021/05/22 12:05:41;;;;;;;3.97;2.40;;;;;;;;;;5033448;28;20290;-57
2021/05/22 12:08:15;;;;;;;12.23;4.93;;;;;;;;;;5035498;28;20300;-57
2021/05/22 12:10:42;;;;;;;19.30;7.37;;;;;;;;;;5053398;28;20258;-57
2021/05/22 12:13:08;;;;;;;7.43;4.43;;;;;;;;;;5053457;28;20266;-58
2021/05/22 12:15:37;;;;;;;8.07;4.40;;;;;;;;;;5053267;28;20262;-58
2021/05/22 12:18:05;;;;;;;7.90;3.80;;;;;;;;;;5053335;28;20321;-58
2021/05/22 12:20:52;;;;;;;8.53;3.90;;;;;;;;;;5053105;28;20616;-57
2021/05/22 12:23:26;;;;;;;11.10;3.50;;;;;;;;;;5052995;28;20852;-57
2021/05/22 12:25:54;;;;;;;6.43;3.10;;;;;;;;;;5053107;28;20621;-57
2021/05/22 12:28:21;;;;;;;5.10;3.33;;;;;;;;;;5053133;28;20049;-58
2021/05/22 12:30:48;;;;;;;7.30;3.60;;;;;;;;;;5052574;28;20266;-58
2021/05/22 12:33:17;;;;;;;8.43;3.27;;;;;;;;;;5052889;28;20262;-58
2021/05/22 12:35:46;;;;;;;6.47;3.13;;;;;;;;;;5053211;28;20250;-58
2021/05/22 12:38:14;;;;;;;5.10;3.00;;;;;;;;;;5053019;28;20282;-58
2021/05/22 12:40:50;;;;;;;4.70;2.70;;;;;;;;;;5052975;28;20287;-57
2021/05/22 12:43:18;;;;;;;5.17;3.20;;;;;;;;;;5052882;28;20300;-57
2021/05/22 12:45:46;;;;;;;7.27;3.17;;;;;;;;;;5052781;28;20266;-58
2021/05/22 12:48:26;;;;;;;10.23;3.73;;;;;;;;;;5052685;28;20250;-57
2021/05/22 12:50:53;;;;;;;6.50;4.57;;;;;;;;;;5052702;28;20262;-58
2021/05/22 12:53:30;;;;;;;9.63;5.10;;;;;;;;;;5052765;28;20338;-57
2021/05/22 12:56:04;;;;;;;9.47;4.73;;;;;;;;;;5052644;28;20681;-57
2021/05/22 12:58:31;;;;;;;8.32;4.80;;;;;;;;;;5032574;28;20777;-57
2021/05/22 13:01:01;;;;;;;6.13;4.03;;;;;;;;;;5052611;28;20021;-57
2021/05/22 13:03:38;;;;;;;7.43;3.47;;;;;;;;;;5052443;28;20369;-58
2021/05/22 13:06:04;;;;;;;8.67;3.87;;;;;;;;;;5052483;28;20319;-57
2021/05/22 13:08:31;;;;;;;6.17;3.07;;;;;;;;;;5052545;28;20262;-58
2021/05/22 13:11:14;;;;;;;5.83;2.73;;;;;;;;;;5052612;28;20250;-58
2021/05/22 13:13:41;;;;;;;6.37;2.60;;;;;;;;;;5052483;28;20330;-57
2021/05/22 13:16:09;;;;;;;5.43;2.43;;;;;;;;;;5052556;28;20998;-58
2021/05/22 13:18:38;;;;;;;8.17;3.00;;;;;;;;;;5052576;28;20341;-57
2021/05/22 13:21:12;;;;;;;6.17;2.80;;;;;;;;;;5052325;28;20250;-57
2021/05/22 13:23:57;;;;;;;6.57;3.40;;;;;;;;;;5052299;28;20040;-57
2021/05/22 13:26:25;;;;;;;11.93;3.10;;;;;;;;;;5052530;28;20408;-58
2021/05/22 13:28:53;;;;;;;8.47;2.70;;;;;;;;;;5052584;28;20025;-58
2021/05/22 13:31:28;;;;;;;6.47;2.70;;;;;;;;;;5052247;28;20174;-57
2021/05/22 13:34:08;;;;;;;5.70;3.00;;;;;;;;;;5052509;28;20092;-58
2021/05/22 13:36:38;;;;;;;8.10;3.00;;;;;;;;;;5052409;28;20020;-58
2021/05/22 13:39:06;;;;;;;6.27;2.40;;;;;;;;;;5052419;28;20026;-58
2021/05/22 13:41:37;;;;;;;7.50;3.30;;;;;;;;;;5052870;28;20025;-58
2021/05/22 13:44:05;;;;;;;8.47;4.53;;;;;;;;;;5055927;28;20048;-58
2021/05/22 13:46:32;;;;;;;10.73;5.20;;;;;;;;;;5055939;28;20028;-58
2021/05/22 13:48:59;;;;;;;10.87;5.73;;;;;;;;;;5056038;28;20025;-58
2021/05/22 13:51:27;;;;;;;12.70;6.30;;;;;;;;;;5056044;28;20028;-58
2021/05/22 13:53:54;;;;;;;10.20;4.87;;;;;;;;;;5055854;28;20071;-58
2021/05/22 13:56:21;;;;;;;9.73;4.83;;;;;;;;;;5037391;28;20025;-59
2021/05/22 13:58:49;;;;;;;9.53;4.67;;;;;;;;;;5035879;28;20033;-59
2021/05/22 14:01:22;;;;;;;13.60;6.60;;;;;;;;;;5035828;28;20101;-57
2021/05/22 14:03:53;;;;;;;9.30;5.47;;;;;;;;;;5035405;28;20454;-58
2021/05/22 14:06:23;;;;;;;19.10;5.40;;;;;;;;;;5035736;28;20395;-59
2021/05/22 14:08:50;;;;;;;9.70;5.43;;;;;;;;;;5035545;28;20053;-57
2021/05/22 14:11:17;;;;;;;7.67;5.53;;;;;;;;;;5035719;28;20025;-58
2021/05/22 14:13:44;;;;;;;10.03;5.07;;;;;;;;;;5035642;28;20026;-58
2021/05/22 14:16:11;;;;;;;6.30;3.97;;;;;;;;;;5035570;28;20057;-58
2021/05/22 14:18:37;;;;;;;10.37;4.17;;;;;;;;;;5035519;28;20116;-58
2021/05/22 14:21:05;;;;;;;8.23;4.30;;;;;;;;;;5035359;28;20026;-59
2021/05/22 14:23:31;;;;;;;6.17;4.20;;;;;;;;;;5035428;28;20120;-58
2021/05/22 14:25:58;;;;;;;5.83;3.47;;;;;;;;;;5035450;28;20029;-57
2021/05/22 14:28:25;;;;;;;6.33;3.53;;;;;;;;;;5035284;28;20021;-57
2021/05/22 14:30:52;;;;;;;6.17;3.73;;;;;;;;;;5035316;28;20028;-59
2021/05/22 14:33:19;;;;;;;6.47;3.27;;;;;;;;;;5055119;28;20021;-58
2021/05/22 14:35:46;;;;;;;8.00;4.07;;;;;;;;;;5055033;28;20033;-56
2021/05/22 14:38:13;;;;;;;4.90;3.20;;;;;;;;;;5055131;28;20021;-57
2021/05/22 14:40:40;;;;;;;7.40;3.50;;;;;;;;;;5054895;28;20082;-58
2021/05/22 14:43:07;;;;;;;6.40;2.70;;;;;;;;;;5054869;28;20430;-58
2021/05/22 14:45:34;;;;;;;3.73;2.23;;;;;;;;;;5054814;28;20059;-57
2021/05/22 14:48:01;;;;;;;4.40;2.20;;;;;;;;;;5036970;28;20025;-58
2021/05/22 14:50:27;;;;;;;3.33;2.37;;;;;;;;;;5054799;28;20021;-58
2021/05/22 14:52:54;;;;;;;3.40;2.40;;;;;;;;;;5054283;28;20090;-58